Es ist keine erhöhte Aufmerksamkeit aufgrund des Wetters notwendig.    Es gibt keine Warnungen.
Webcam Vorhersage DWD Regenradar Wetterlage NRW Blitze Wind GFS-Modell
webcam


Kleve - Düffelward SSO more information Kleve - Düffelward SSO


Goch more information Goch


Weitere Templates dieser Seite und andere Webseiten:

Meteotemplate

Awekas - Template

weather34 - Template

Wetter im Erzgebirge


te
World Weather Websites
Bo-Rox Wetter Topsites List
 

METAR-Meldungen aus der Umgebung

   
EDLV - Goch
Aktualisierung: 23-08-2019 12:50
Klar  
Klar  
   Wind: variiert 5.6 km/h
Wind: variiert 5.6 km/h
Temperatur: 25°C
Taupunkt: 14°C
Luftfeuchte: 51%
Luftdruck: 1026 hPa
Sichtbarkeit: More than 10 km
Bewölkung: Klar
EDLV 231050Z VRB03KT CAVOK 25/14 Q1026
EDLV - Emmerich
Aktualisierung: 23-08-2019 12:50
Klar  
Klar  
   Wind: variiert 5.6 km/h
Wind: variiert 5.6 km/h
Temperatur: 25°C
Taupunkt: 14°C
Luftfeuchte: 51%
Luftdruck: 1026 hPa
Sichtbarkeit: More than 10 km
Bewölkung: Klar
EDLV 231050Z VRB03KT CAVOK 25/14 Q1026
EHDL - Nijmegen
Aktualisierung: 23-08-2019 12:55
Bewölkt  
Bewölkt  
   Wind: SSW 5.6 km/h
Wind: SSW 5.6 km/h
Temperatur: 24°C
Taupunkt: 12°C
Luftfeuchte: 47%
Luftdruck: 1026 hPa
Bewölkt: Bewölkt
Sichtbarkeit: More than 10 km
Bewölkung: Bewölkt 30000 ft
EHDL 231055Z AUTO 21003KT 030V170 9999 OVC300 24/12 Q1026 BLU
EHDL - Arnhem
Aktualisierung: 23-08-2019 12:55
Bewölkt  
Bewölkt  
   Wind: SSW 5.6 km/h
Wind: SSW 5.6 km/h
Temperatur: 24°C
Taupunkt: 12°C
Luftfeuchte: 47%
Luftdruck: 1026 hPa
Bewölkt: Bewölkt
Sichtbarkeit: More than 10 km
Bewölkung: Bewölkt 30000 ft
EHDL 231055Z AUTO 21003KT 030V170 9999 OVC300 24/12 Q1026 BLU
EDLV - Kalkar
Aktualisierung: 23-08-2019 12:50
Klar  
Klar  
   Wind: variiert 5.6 km/h
Wind: variiert 5.6 km/h
Temperatur: 25°C
Taupunkt: 14°C
Luftfeuchte: 51%
Luftdruck: 1026 hPa
Sichtbarkeit: More than 10 km
Bewölkung: Klar
EDLV 231050Z VRB03KT CAVOK 25/14 Q1026
 

Script entwickelt von  Saratoga-weather.org Angepasst für das Template von  Weerstation Leuven

Sie finden Wetter-Infos dieser Station auch auf:

UK Metoffice

European Weather Network

WeatherCloud

Weather Underground

Germany Weather Network

AWEKAS

Neuwetter

Wettersektor

Von uns verwendete Ausrüstung:

Wetterstation
Davis Vantage Pro2

Wetterprogramm
Meteobridge

WetterComputer
Computer

Davis Vantage Pro2

Meteobridge

Computer